Time;durP1;ratioP1;P1;durP2;ratioP2;P2;SDS_P1;SDS_P2;PMS_P1;PMS_P2;Temp;Humidity;BMP_temperature;BMP_pressure;BME280_temperature;BME280_humidity;BME280_pressure;Samples;Min_cycle;Max_cycle;Signal;HPM_P1;HPM_P2
2020/12/22 00:00:11;;;;;;;25.40;18.30;;;13.00;99.90;;;;;;5089335;28;20133;-49
2020/12/22 00:02:49;;;;;;;27.15;19.25;;;13.00;99.90;;;;;;5095190;28;20075;-47
2020/12/22 00:05:16;;;;;;;29.67;18.73;;;13.10;99.90;;;;;;5093976;28;20093;-48
2020/12/22 00:07:44;;;;;;;26.55;19.45;;;13.00;99.90;;;;;;5112026;28;20056;-49
2020/12/22 00:10:12;;;;;;;30.70;19.42;;;13.00;99.90;;;;;;5093872;28;20044;-47
2020/12/22 00:12:39;;;;;;;31.60;19.25;;;13.00;99.90;;;;;;5094398;28;20044;-45
2020/12/22 00:15:11;;;;;;;25.08;17.75;;;13.00;99.90;;;;;;5094131;28;20397;-44
2020/12/22 00:17:43;;;;;;;29.67;18.95;;;13.00;99.90;;;;;;5094288;28;20427;-47
2020/12/22 00:20:12;;;;;;;28.75;19.42;;;13.00;99.90;;;;;;5077176;28;20136;-43
2020/12/22 00:22:39;;;;;;;28.15;18.88;;;13.00;99.90;;;;;;5094650;28;20177;-44
2020/12/22 00:25:06;;;;;;;35.72;21.45;;;13.00;99.90;;;;;;5112634;28;20044;-45
2020/12/22 00:27:34;;;;;;;32.38;21.52;;;13.00;99.90;;;;;;5078571;28;20051;-46
2020/12/22 00:30:03;;;;;;;30.63;22.52;;;13.00;99.90;;;;;;5094623;28;20493;-44
2020/12/22 00:32:33;;;;;;;33.72;22.45;;;13.00;99.90;;;;;;5078415;28;20379;-44
2020/12/22 00:35:01;;;;;;;30.73;22.20;;;12.90;99.90;;;;;;5095244;28;20442;-44
2020/12/22 00:37:28;;;;;;;34.75;21.63;;;12.90;99.90;;;;;;5095687;28;20126;-44
2020/12/22 00:39:56;;;;;;;32.40;23.63;;;13.00;99.90;;;;;;5094773;28;20048;-45
2020/12/22 00:42:23;;;;;;;36.65;23.55;;;13.00;99.90;;;;;;5095219;28;20052;-44
2020/12/22 00:44:50;;;;;;;35.80;24.63;;;13.00;99.90;;;;;;5093965;28;20155;-45
2020/12/22 00:47:18;;;;;;;33.92;24.17;;;13.00;99.90;;;;;;5113154;28;20063;-44
2020/12/22 00:49:45;;;;;;;37.95;25.33;;;13.00;99.90;;;;;;5094744;28;20130;-45
2020/12/22 00:52:12;;;;;;;37.45;23.83;;;13.00;99.90;;;;;;5116232;28;20047;-43
2020/12/22 00:54:40;;;;;;;37.45;23.40;;;13.00;99.90;;;;;;5070803;28;20063;-44
2020/12/22 00:57:07;;;;;;;36.05;23.40;;;13.00;99.90;;;;;;5097504;28;20039;-43
2020/12/22 01:00:12;;;;;;;33.95;22.77;;;13.00;99.90;;;;;;5062591;28;20055;-44
2020/12/22 01:02:40;;;;;;;36.88;23.42;;;13.00;99.90;;;;;;5081721;28;20065;-45
2020/12/22 01:05:07;;;;;;;35.08;21.85;;;13.00;99.90;;;;;;5098086;28;20496;-43
2020/12/22 01:07:35;;;;;;;34.20;22.13;;;13.00;99.90;;;;;;5116482;28;20139;-44
2020/12/22 01:10:02;;;;;;;31.38;20.08;;;13.00;99.90;;;;;;5097816;28;20048;-44
2020/12/22 01:12:30;;;;;;;28.70;20.83;;;13.00;99.90;;;;;;5098451;28;20105;-43
2020/12/22 01:14:57;;;;;;;32.00;21.75;;;13.10;99.90;;;;;;5097821;28;20083;-44
2020/12/22 01:17:24;;;;;;;31.40;20.40;;;13.10;99.90;;;;;;5116237;28;20051;-43
2020/12/22 01:19:53;;;;;;;31.02;20.00;;;13.10;99.90;;;;;;5097783;28;20509;-44
2020/12/22 01:22:21;;;;;;;32.83;19.77;;;13.10;99.90;;;;;;5081716;28;20052;-44
2020/12/22 01:24:48;;;;;;;33.20;19.90;;;13.10;99.90;;;;;;5115630;28;20039;-44
2020/12/22 01:27:16;;;;;;;26.50;18.10;;;13.20;99.90;;;;;;5078041;28;20093;-44
2020/12/22 01:29:43;;;;;;;27.83;19.35;;;13.10;99.90;;;;;;5090785;28;20055;-43
2020/12/22 01:32:11;;;;;;;26.15;18.77;;;13.20;99.90;;;;;;5097334;28;20075;-43
2020/12/22 01:34:38;;;;;;;31.88;18.00;;;13.20;99.90;;;;;;5097285;28;20052;-45
2020/12/22 01:37:13;;;;;;;26.75;18.95;;;13.20;99.90;;;;;;5097848;28;20035;-44
2020/12/22 01:39:40;;;;;;;21.80;16.67;;;13.20;99.90;;;;;;5053727;28;20047;-43
2020/12/22 01:42:09;;;;;;;27.55;18.42;;;13.20;99.90;;;;;;5114796;28;20105;-43
2020/12/22 01:44:37;;;;;;;26.42;17.60;;;13.20;99.90;;;;;;5114946;28;20058;-44
2020/12/22 01:47:04;;;;;;;32.75;17.38;;;13.20;99.90;;;;;;5080744;28;20396;-43
2020/12/22 01:49:32;;;;;;;26.70;17.73;;;13.20;99.90;;;;;;5097159;28;20066;-46
2020/12/22 01:51:59;;;;;;;25.33;17.20;;;13.20;99.90;;;;;;5097876;28;20485;-43
2020/12/22 01:54:27;;;;;;;26.05;17.05;;;13.20;99.90;;;;;;5096849;28;20497;-44
2020/12/22 01:56:55;;;;;;;25.42;17.20;;;13.20;99.90;;;;;;5097491;28;20465;-43
2020/12/22 01:59:22;;;;;;;24.83;17.00;;;13.20;99.90;;;;;;5080366;28;20051;-44
2020/12/22 02:01:52;;;;;;;24.98;17.02;;;13.20;99.90;;;;;;5097324;28;20054;-44
2020/12/22 02:04:20;;;;;;;26.92;17.20;;;13.20;99.90;;;;;;5114771;28;20072;-44
2020/12/22 02:06:48;;;;;;;30.90;17.20;;;13.20;99.90;;;;;;5097225;28;20048;-43
2020/12/22 02:09:16;;;;;;;25.60;18.58;;;13.10;99.90;;;;;;5074647;28;20058;-44
2020/12/22 02:11:43;;;;;;;24.73;17.20;;;13.10;99.90;;;;;;5080684;28;20054;-43
2020/12/22 02:14:11;;;;;;;23.75;15.55;;;13.10;99.90;;;;;;5096775;28;20078;-44
2020/12/22 02:16:39;;;;;;;32.60;18.08;;;13.10;99.90;;;;;;5076363;28;20087;-44
2020/12/22 02:19:14;;;;;;;27.60;17.75;;;13.10;99.90;;;;;;5090428;28;20043;-43
2020/12/22 02:21:42;;;;;;;25.10;15.93;;;13.10;99.90;;;;;;5097253;28;20044;-46
2020/12/22 02:24:09;;;;;;;24.63;16.92;;;13.00;99.90;;;;;;5079797;28;20430;-44
2020/12/22 02:26:36;;;;;;;26.48;17.17;;;13.00;99.90;;;;;;5114727;28;20052;-44
2020/12/22 02:29:04;;;;;;;24.50;16.35;;;13.00;99.90;;;;;;5075774;28;20047;-44
2020/12/22 02:31:31;;;;;;;23.88;16.70;;;13.00;99.90;;;;;;5096925;28;20122;-44
2020/12/22 02:33:58;;;;;;;27.23;17.02;;;13.00;99.90;;;;;;5096119;28;20047;-44
2020/12/22 02:36:25;;;;;;;22.15;16.23;;;13.00;99.90;;;;;;5096943;28;20044;-45
2020/12/22 02:38:53;;;;;;;25.13;17.30;;;13.00;99.90;;;;;;5114256;28;20419;-44
2020/12/22 02:41:20;;;;;;;23.90;16.95;;;13.00;99.90;;;;;;5096819;28;20054;-44
2020/12/22 02:43:47;;;;;;;29.15;16.73;;;13.00;99.90;;;;;;5096104;28;20073;-44
2020/12/22 02:46:15;;;;;;;22.52;16.45;;;13.00;99.90;;;;;;5075876;28;20455;-46
2020/12/22 02:48:42;;;;;;;25.27;17.30;;;13.00;99.90;;;;;;5084074;28;20048;-45
2020/12/22 02:51:11;;;;;;;27.58;17.15;;;13.00;99.90;;;;;;5096508;28;20043;-45
2020/12/22 02:53:38;;;;;;;25.92;18.40;;;13.00;99.90;;;;;;5096032;28;20073;-44
2020/12/22 02:56:05;;;;;;;28.27;18.92;;;13.00;99.90;;;;;;5114671;28;20443;-45
2020/12/22 02:58:32;;;;;;;25.90;18.80;;;13.00;99.90;;;;;;5059568;28;20512;-49
2020/12/22 03:01:00;;;;;;;29.15;18.15;;;13.00;99.90;;;;;;5096064;28;20531;-46
2020/12/22 03:03:27;;;;;;;25.60;17.13;;;13.00;99.90;;;;;;5096002;28;20036;-44
2020/12/22 03:05:54;;;;;;;26.15;19.27;;;12.90;99.90;;;;;;5096154;28;20055;-44
2020/12/22 03:08:21;;;;;;;25.90;17.58;;;13.00;99.90;;;;;;5113878;28;20054;-44
2020/12/22 03:10:49;;;;;;;25.17;16.90;;;13.00;99.90;;;;;;5079140;28;20058;-44
2020/12/22 03:13:16;;;;;;;26.38;16.77;;;13.00;99.90;;;;;;5095743;28;20105;-45
2020/12/22 03:15:43;;;;;;;23.55;17.05;;;13.00;99.90;;;;;;5096153;28;20047;-45
2020/12/22 03:18:10;;;;;;;26.38;15.88;;;13.00;99.90;;;;;;5114126;28;20138;-43
2020/12/22 03:20:37;;;;;;;22.45;15.48;;;13.00;99.90;;;;;;5095957;28;20436;-44
2020/12/22 03:23:05;;;;;;;23.42;17.30;;;13.00;99.90;;;;;;5095654;28;20473;-44
2020/12/22 03:25:32;;;;;;;25.33;15.77;;;13.00;99.90;;;;;;5095740;28;20039;-43
2020/12/22 03:27:59;;;;;;;19.88;14.43;;;13.00;99.90;;;;;;5113637;28;20113;-44
2020/12/22 03:30:27;;;;;;;25.95;16.05;;;13.00;99.90;;;;;;5095910;28;20481;-44
2020/12/22 03:32:54;;;;;;;27.15;16.77;;;12.90;99.90;;;;;;5095380;28;20047;-44
2020/12/22 03:35:22;;;;;;;21.00;15.55;;;12.90;99.90;;;;;;5079456;28;20146;-44
2020/12/22 03:37:50;;;;;;;21.63;16.13;;;13.00;99.90;;;;;;5095509;28;20047;-44
2020/12/22 03:40:20;;;;;;;21.88;15.88;;;12.90;99.90;;;;;;5070893;28;20401;-44
2020/12/22 03:42:47;;;;;;;21.77;15.23;;;12.90;99.90;;;;;;5075576;28;20043;-44
2020/12/22 03:45:16;;;;;;;26.58;16.20;;;12.90;99.90;;;;;;5074767;28;20064;-45
2020/12/22 03:47:44;;;;;;;24.42;16.95;;;12.90;99.90;;;;;;5075619;28;20052;-46
2020/12/22 03:50:18;;;;;;;23.98;16.67;;;12.90;99.90;;;;;;5074936;28;20043;-44
2020/12/22 03:52:46;;;;;;;25.38;15.63;;;12.90;99.90;;;;;;5095131;28;20075;-44
2020/12/22 03:55:13;;;;;;;24.33;16.25;;;12.80;99.90;;;;;;5061617;28;20506;-44
2020/12/22 03:57:41;;;;;;;24.60;15.40;;;12.80;99.90;;;;;;5095805;28;20071;-44
2020/12/22 04:00:10;;;;;;;25.40;15.90;;;12.80;99.90;;;;;;5095293;28;20059;-44
2020/12/22 04:02:37;;;;;;;22.38;15.32;;;12.80;99.90;;;;;;5095361;28;20139;-44
2020/12/22 04:05:04;;;;;;;24.25;16.48;;;12.80;99.90;;;;;;5112922;28;20081;-44
2020/12/22 04:07:32;;;;;;;22.92;15.98;;;12.80;99.90;;;;;;5095426;28;20090;-43
2020/12/22 04:09:59;;;;;;;22.77;16.50;;;12.80;99.90;;;;;;5094714;28;20176;-44
2020/12/22 04:12:26;;;;;;;20.85;14.88;;;12.80;99.90;;;;;;5113618;28;20147;-43
2020/12/22 04:14:53;;;;;;;24.25;15.38;;;12.70;99.90;;;;;;5094850;28;20647;-44
2020/12/22 04:17:21;;;;;;;20.52;13.73;;;12.70;99.90;;;;;;5095236;28;20048;-44
2020/12/22 04:19:48;;;;;;;24.52;15.00;;;12.60;99.90;;;;;;5112809;28;20078;-43
2020/12/22 04:22:16;;;;;;;20.83;14.50;;;12.60;99.90;;;;;;5075460;28;20064;-44
2020/12/22 04:24:43;;;;;;;24.95;16.58;;;12.70;99.90;;;;;;5071133;28;20052;-44
2020/12/22 04:27:11;;;;;;;22.42;15.23;;;12.70;99.90;;;;;;5116084;28;20052;-45
2020/12/22 04:29:38;;;;;;;23.63;16.95;;;12.70;99.90;;;;;;5116923;28;20126;-43
2020/12/22 04:32:06;;;;;;;27.10;17.05;;;12.70;99.90;;;;;;5117341;28;20079;-45
2020/12/22 04:34:33;;;;;;;24.88;16.05;;;12.70;99.90;;;;;;5098490;28;20054;-44
2020/12/22 04:37:00;;;;;;;21.55;15.48;;;12.70;99.90;;;;;;5099198;28;20059;-44
2020/12/22 04:39:28;;;;;;;21.63;14.63;;;12.70;99.90;;;;;;5098418;28;20115;-47
2020/12/22 04:41:58;;;;;;;22.55;16.02;;;12.70;99.90;;;;;;5117250;28;20051;-44
2020/12/22 04:44:25;;;;;;;22.10;16.05;;;12.70;99.90;;;;;;5116571;28;20063;-44
2020/12/22 04:46:53;;;;;;;20.30;14.65;;;12.60;99.90;;;;;;5098590;28;20451;-44
2020/12/22 04:49:23;;;;;;;22.63;15.65;;;12.60;99.90;;;;;;5098379;28;20109;-45
2020/12/22 04:51:51;;;;;;;24.10;15.68;;;12.60;99.90;;;;;;5117112;28;20374;-44
2020/12/22 04:54:37;;;;;;;22.73;16.67;;;12.60;99.90;;;;;;5094296;28;20074;-44
2020/12/22 04:57:05;;;;;;;23.27;16.20;;;12.50;99.90;;;;;;5065338;28;20382;-44
2020/12/22 04:59:33;;;;;;;26.02;16.55;;;12.50;99.90;;;;;;5081232;28;20116;-46
2020/12/22 05:02:00;;;;;;;23.05;15.40;;;12.50;99.90;;;;;;5099075;28;20052;-43
2020/12/22 05:04:35;;;;;;;21.48;13.95;;;12.50;99.90;;;;;;5098079;28;20044;-44
2020/12/22 05:07:04;;;;;;;22.13;15.20;;;12.40;99.90;;;;;;5098667;28;20051;-43
2020/12/22 05:09:31;;;;;;;25.35;15.25;;;12.40;99.90;;;;;;5072437;28;20050;-44
2020/12/22 05:11:59;;;;;;;20.65;13.90;;;12.40;99.90;;;;;;5096405;28;20476;-43
2020/12/22 05:14:29;;;;;;;21.60;14.93;;;12.40;99.90;;;;;;5115800;28;20092;-43
2020/12/22 05:16:57;;;;;;;22.30;15.35;;;12.40;99.90;;;;;;5078169;28;20093;-44
2020/12/22 05:19:33;;;;;;;25.38;16.13;;;12.40;99.90;;;;;;5088289;28;20406;-43
2020/12/22 05:22:06;;;;;;;24.88;16.95;;;12.40;99.90;;;;;;5079933;28;20490;-43
2020/12/22 05:24:36;;;;;;;25.35;16.50;;;12.40;99.90;;;;;;5097579;28;20046;-43
2020/12/22 05:27:04;;;;;;;26.15;16.77;;;12.40;99.90;;;;;;5116241;28;20044;-45
2020/12/22 05:29:35;;;;;;;26.40;15.93;;;12.40;99.90;;;;;;5115728;28;20505;-44
2020/12/22 05:32:04;;;;;;;23.90;16.65;;;12.50;99.90;;;;;;5098122;28;20557;-43
2020/12/22 05:34:31;;;;;;;22.88;15.27;;;12.50;99.90;;;;;;5097594;28;20134;-44
2020/12/22 05:37:00;;;;;;;21.42;16.30;;;12.50;99.90;;;;;;5097786;28;20052;-43
2020/12/22 05:39:27;;;;;;;22.52;15.85;;;12.40;99.90;;;;;;5097761;28;20047;-44
2020/12/22 05:41:55;;;;;;;23.05;15.70;;;12.40;99.90;;;;;;5097911;28;20058;-44
2020/12/22 05:44:26;;;;;;;23.23;15.32;;;12.40;99.90;;;;;;5097023;28;20144;-47
2020/12/22 05:46:58;;;;;;;25.63;17.25;;;12.40;99.90;;;;;;5115706;28;20059;-44
2020/12/22 05:49:26;;;;;;;26.35;17.48;;;12.40;99.90;;;;;;5080932;28;20058;-44
2020/12/22 05:51:55;;;;;;;25.38;16.23;;;12.30;99.90;;;;;;5115834;28;20483;-43
2020/12/22 05:54:22;;;;;;;20.77;15.75;;;12.40;99.90;;;;;;5097159;28;20051;-43
2020/12/22 05:56:50;;;;;;;23.35;16.00;;;12.30;99.90;;;;;;5097147;28;20516;-43
2020/12/22 05:59:19;;;;;;;22.25;16.33;;;12.40;99.90;;;;;;5114932;28;20497;-44
2020/12/22 06:01:47;;;;;;;24.83;15.73;;;12.40;99.90;;;;;;5097407;28;20051;-43
2020/12/22 06:04:17;;;;;;;22.98;16.48;;;12.30;99.90;;;;;;5097345;28;20044;-45
2020/12/22 06:06:45;;;;;;;23.92;16.58;;;12.40;99.90;;;;;;5115131;28;20048;-44
2020/12/22 06:09:14;;;;;;;32.08;18.63;;;12.40;99.90;;;;;;5114903;28;20094;-44
2020/12/22 06:11:41;;;;;;;25.85;16.02;;;12.40;99.90;;;;;;5097406;28;20478;-45
2020/12/22 06:14:09;;;;;;;26.52;17.00;;;12.40;99.90;;;;;;5097044;28;20036;-45
2020/12/22 06:16:36;;;;;;;24.38;16.85;;;12.30;99.90;;;;;;5083176;28;20040;-45
2020/12/22 06:19:07;;;;;;;23.15;17.20;;;12.30;99.90;;;;;;5095598;28;20385;-43
2020/12/22 06:21:36;;;;;;;21.73;14.30;;;12.30;99.90;;;;;;5097199;28;20052;-48
2020/12/22 06:24:03;;;;;;;24.13;14.85;;;12.30;99.90;;;;;;5076610;28;20104;-45
2020/12/22 06:26:31;;;;;;;22.48;14.50;;;12.30;99.90;;;;;;5094906;28;20048;-45
2020/12/22 06:28:58;;;;;;;25.05;16.67;;;12.30;99.90;;;;;;5110812;27;20035;-48
2020/12/22 06:31:33;;;;;;;23.75;16.00;;;12.30;99.90;;;;;;5093803;27;20038;-49
2020/12/22 06:34:00;;;;;;;24.85;16.15;;;12.40;99.90;;;;;;5113094;27;20044;-44
2020/12/22 06:36:28;;;;;;;29.80;18.85;;;12.70;99.90;;;;;;5096316;28;20096;-45
2020/12/22 06:39:02;;;;;;;31.95;19.17;;;13.10;99.90;;;;;;5090880;28;20047;-44
2020/12/22 06:41:33;;;;;;;23.98;16.75;;;13.60;99.90;;;;;;5107883;27;20058;-44
2020/12/22 06:44:26;;;;;;;26.15;16.67;;;14.20;99.90;;;;;;5074052;28;20055;-44
2020/12/22 06:46:56;;;;;;;26.35;17.45;;;14.70;99.90;;;;;;5081046;27;20536;-48
2020/12/22 06:49:50;;;;;;;25.45;16.67;;;15.20;99.90;;;;;;4977740;28;20055;-48
2020/12/22 06:52:31;;;;;;;22.88;16.63;;;15.50;99.90;;;;;;5101700;28;20044;-46
2020/12/22 06:55:00;;;;;;;24.58;16.27;;;15.40;99.90;;;;;;5008502;28;20882;-46
2020/12/22 06:57:45;;;;;;;27.92;16.77;;;14.90;99.90;;;;;;4727815;28;20100;-44
2020/12/22 07:00:29;;;;;;;27.10;17.38;;;14.40;99.90;;;;;;5057315;28;20144;-49
2020/12/22 07:03:12;;;;;;;28.13;16.60;;;14.00;99.90;;;;;;5068437;27;20480;-46
2020/12/22 07:05:45;;;;;;;31.65;18.98;;;13.70;99.90;;;;;;5096939;28;20039;-44
2020/12/22 07:08:14;;;;;;;27.13;18.52;;;13.50;99.90;;;;;;5095450;28;20130;-46
2020/12/22 07:10:48;;;;;;;23.83;16.23;;;13.40;99.90;;;;;;5088335;28;20105;-44
2020/12/22 07:13:18;;;;;;;35.22;21.33;;;13.30;99.90;;;;;;5109153;28;20405;-45
2020/12/22 07:15:48;;;;;;;29.88;20.58;;;13.20;99.90;;;;;;5094726;28;20039;-49
2020/12/22 07:18:19;;;;;;;36.83;25.85;;;13.10;99.90;;;;;;5095769;28;20505;-46
2020/12/22 07:20:49;;;;;;;39.15;27.15;;;13.10;99.90;;;;;;5095635;28;20036;-46
2020/12/22 07:23:17;;;;;;;39.80;27.48;;;13.00;99.90;;;;;;5095865;28;20062;-50
2020/12/22 07:25:45;;;;;;;37.55;25.15;;;13.00;99.90;;;;;;5096085;28;20076;-44
2020/12/22 07:28:16;;;;;;;37.33;24.63;;;13.00;99.90;;;;;;5079311;28;20047;-46
2020/12/22 07:30:45;;;;;;;34.63;23.08;;;13.00;99.90;;;;;;5071214;28;20082;-45
2020/12/22 07:33:13;;;;;;;36.88;23.38;;;13.00;99.90;;;;;;5113555;28;20139;-49
2020/12/22 07:35:41;;;;;;;30.05;22.90;;;13.00;99.90;;;;;;5092782;28;20105;-44
2020/12/22 07:38:11;;;;;;;34.85;22.73;;;13.00;99.90;;;;;;5074524;28;20059;-44
2020/12/22 07:40:43;;;;;;;30.30;21.83;;;13.00;99.90;;;;;;5093523;28;20075;-45
2020/12/22 07:43:13;;;;;;;31.40;21.08;;;13.00;99.90;;;;;;5077550;28;20401;-45
2020/12/22 07:45:51;;;;;;;35.00;24.80;;;13.10;99.90;;;;;;5090661;28;20130;-44
2020/12/22 07:48:20;;;;;;;43.30;30.27;;;13.10;99.90;;;;;;5112753;28;20112;-44
2020/12/22 07:50:54;;;;;;;39.28;27.33;;;13.10;99.90;;;;;;5094588;28;20070;-47
2020/12/22 07:53:22;;;;;;;43.50;29.20;;;13.10;99.90;;;;;;5112428;28;20122;-46
2020/12/22 07:55:50;;;;;;;39.13;27.73;;;13.10;99.90;;;;;;5070379;28;20062;-47
2020/12/22 07:58:19;;;;;;;39.70;26.02;;;13.10;99.90;;;;;;5110372;28;20128;-44
2020/12/22 08:00:47;;;;;;;40.05;27.63;;;13.20;99.90;;;;;;5097555;28;20435;-44
2020/12/22 08:03:17;;;;;;;36.63;24.55;;;13.20;99.90;;;;;;5064810;28;20062;-49
2020/12/22 08:06:01;;;;;;;32.78;23.90;;;13.30;99.90;;;;;;5099806;28;20096;-44
2020/12/22 08:08:29;;;;;;;31.05;22.77;;;13.30;99.90;;;;;;5083444;28;20036;-44
2020/12/22 08:10:57;;;;;;;32.72;22.85;;;13.40;99.90;;;;;;5065145;28;20051;-50
2020/12/22 08:13:29;;;;;;;32.88;22.50;;;13.40;99.90;;;;;;5098086;28;20541;-43
2020/12/22 08:16:01;;;;;;;33.17;20.73;;;13.50;99.90;;;;;;5074712;28;20048;-44
2020/12/22 08:18:32;;;;;;;36.30;22.60;;;13.50;99.90;;;;;;5106097;28;20443;-44
2020/12/22 08:21:01;;;;;;;33.58;22.13;;;13.60;99.90;;;;;;5117679;28;20061;-43
2020/12/22 08:23:32;;;;;;;34.38;20.40;;;13.60;99.90;;;;;;5082992;28;20047;-45
2020/12/22 08:26:05;;;;;;;30.13;21.02;;;13.70;99.90;;;;;;5078145;28;20105;-45
2020/12/22 08:28:35;;;;;;;29.10;21.17;;;13.70;99.90;;;;;;5085249;28;20059;-51
2020/12/22 08:31:17;;;;;;;28.70;20.40;;;13.80;99.90;;;;;;5114203;28;20044;-47
2020/12/22 08:33:51;;;;;;;28.00;20.15;;;13.80;99.90;;;;;;5116537;27;20046;-45
2020/12/22 08:36:29;;;;;;;28.98;21.50;;;14.00;99.90;;;;;;5108474;28;20059;-43
2020/12/22 08:39:21;;;;;;;26.42;18.80;;;14.10;99.90;;;;;;5098353;28;20131;-44
2020/12/22 08:41:51;;;;;;;25.50;17.17;;;14.40;99.90;;;;;;4997364;28;20676;-49
2020/12/22 08:44:20;;;;;;;28.80;18.27;;;14.70;99.90;;;;;;4970995;27;20108;-49
2020/12/22 08:46:51;;;;;;;30.35;20.23;;;14.90;99.90;;;;;;5053612;27;20048;-47
2020/12/22 08:49:21;;;;;;;25.00;17.70;;;15.10;99.90;;;;;;5081372;28;20512;-44
2020/12/22 08:51:48;;;;;;;23.88;17.85;;;15.20;99.90;;;;;;5081398;28;20116;-45
2020/12/22 08:54:17;;;;;;;24.73;16.85;;;15.30;99.90;;;;;;5098002;28;20104;-44
2020/12/22 08:56:46;;;;;;;22.23;17.77;;;15.30;99.90;;;;;;5098314;28;20052;-44
2020/12/22 08:59:14;;;;;;;23.58;17.88;;;15.30;99.90;;;;;;5116283;28;20123;-47
2020/12/22 09:01:47;;;;;;;22.73;16.48;;;15.30;99.90;;;;;;5097749;28;20047;-45
2020/12/22 09:04:15;;;;;;;22.05;15.82;;;15.20;99.90;;;;;;5082278;28;20486;-48
2020/12/22 09:06:47;;;;;;;21.88;15.23;;;15.20;99.90;;;;;;5081478;28;20044;-44
2020/12/22 09:09:24;;;;;;;19.80;14.55;;;15.10;99.90;;;;;;5096585;28;20051;-49
2020/12/22 09:12:11;;;;;;;19.17;15.25;;;15.10;99.90;;;;;;5114709;28;20585;-46
2020/12/22 09:14:45;;;;;;;21.60;15.30;;;15.30;99.90;;;;;;5097485;28;20044;-44
2020/12/22 09:17:26;;;;;;;19.65;13.38;;;15.60;99.90;;;;;;5098200;28;20071;-44
2020/12/22 09:19:55;;;;;;;19.48;13.73;;;16.00;99.90;;;;;;5096529;28;20062;-44
2020/12/22 09:22:28;;;;;;;19.67;13.35;;;16.50;99.90;;;;;;5081062;28;20039;-47
2020/12/22 09:25:00;;;;;;;16.98;11.63;;;17.00;99.90;;;;;;5097080;28;20062;-44
2020/12/22 09:27:39;;;;;;;13.95;10.48;;;17.30;99.90;;;;;;5116384;28;20071;-44
2020/12/22 09:30:10;;;;;;;14.95;11.35;;;17.70;99.90;;;;;;5115511;28;20439;-46
2020/12/22 09:32:41;;;;;;;12.50;9.13;;;17.90;99.90;;;;;;5081000;28;20510;-44
2020/12/22 09:35:12;;;;;;;16.58;9.70;;;18.10;99.90;;;;;;5097098;28;20524;-44
2020/12/22 09:37:39;;;;;;;13.25;9.32;;;18.20;99.90;;;;;;5094432;28;20497;-44
2020/12/22 09:40:11;;;;;;;12.13;8.18;;;18.20;99.90;;;;;;5011332;28;20646;-47
2020/12/22 09:42:42;;;;;;;14.25;9.02;;;18.30;99.90;;;;;;5001504;28;20489;-46
2020/12/22 09:45:11;;;;;;;13.18;8.82;;;18.50;99.90;;;;;;5085582;28;20051;-45
2020/12/22 09:47:39;;;;;;;14.82;7.82;;;18.60;99.90;;;;;;5096838;28;20058;-45
2020/12/22 09:50:11;;;;;;;14.48;9.00;;;18.80;99.90;;;;;;5097042;28;20105;-45
2020/12/22 09:52:38;;;;;;;15.85;10.13;;;18.80;99.90;;;;;;5095793;28;20490;-45
2020/12/22 09:55:06;;;;;;;12.30;8.05;;;19.00;99.90;;;;;;5079411;28;20520;-44
2020/12/22 09:57:34;;;;;;;13.02;9.55;;;19.10;99.60;;;;;;5115457;28;20070;-44
2020/12/22 10:00:06;;;;;;;14.30;8.85;;;19.10;99.20;;;;;;5052479;28;20051;-46
2020/12/22 10:02:34;;;;;;;11.27;8.80;;;19.10;99.00;;;;;;5096846;28;20051;-45
2020/12/22 10:05:02;;;;;;;14.10;8.30;;;19.20;98.70;;;;;;5095881;27;20043;-44
2020/12/22 10:07:30;;;;;;;14.85;8.73;;;19.20;97.80;;;;;;5115023;28;20044;-44
2020/12/22 10:09:58;;;;;;;12.30;8.35;;;19.20;97.60;;;;;;5073681;28;20048;-45
2020/12/22 10:12:26;;;;;;;12.15;8.95;;;19.20;97.50;;;;;;5096788;28;20155;-44
2020/12/22 10:14:57;;;;;;;10.88;7.60;;;19.30;97.40;;;;;;5092362;28;20054;-45
2020/12/22 10:17:25;;;;;;;11.73;7.50;;;19.30;97.20;;;;;;4915837;27;20043;-45
2020/12/22 10:20:02;;;;;;;12.02;6.80;;;19.40;97.10;;;;;;5107200;28;20043;-47
2020/12/22 10:22:38;;;;;;;13.68;8.52;;;19.40;96.60;;;;;;5096373;28;20059;-46
2020/12/22 10:25:10;;;;;;;11.43;8.25;;;19.50;96.50;;;;;;5079563;28;20035;-43
2020/12/22 10:27:41;;;;;;;10.88;7.40;;;19.50;96.30;;;;;;5096718;28;20538;-43
2020/12/22 10:30:09;;;;;;;9.30;6.60;;;19.50;96.00;;;;;;5094697;28;20481;-45
2020/12/22 10:32:37;;;;;;;10.73;6.50;;;19.50;96.40;;;;;;5109712;28;20142;-42
2020/12/22 10:35:05;;;;;;;10.45;7.22;;;19.50;96.70;;;;;;5113001;27;20471;-43
2020/12/22 10:37:34;;;;;;;11.57;8.43;;;19.60;96.60;;;;;;5094992;28;20040;-43
2020/12/22 10:40:03;;;;;;;11.45;6.95;;;19.50;96.10;;;;;;5078110;28;20138;-43
2020/12/22 10:42:32;;;;;;;13.63;8.68;;;19.50;96.80;;;;;;5088383;28;20058;-42
2020/12/22 10:45:00;;;;;;;12.23;8.35;;;19.50;96.50;;;;;;5083777;28;20135;-42
2020/12/22 10:47:28;;;;;;;10.68;7.90;;;19.50;96.00;;;;;;5078245;28;20105;-46
2020/12/22 10:49:58;;;;;;;12.63;8.60;;;19.40;95.60;;;;;;5095564;28;20068;-42
2020/12/22 10:52:27;;;;;;;12.77;9.63;;;19.10;95.30;;;;;;5114032;28;20052;-43
2020/12/22 10:54:58;;;;;;;16.23;11.18;;;19.10;96.00;;;;;;5068175;28;20047;-43
2020/12/22 10:57:26;;;;;;;14.05;10.75;;;19.10;96.30;;;;;;4715756;28;20793;-46
2020/12/22 10:59:54;;;;;;;15.60;11.77;;;19.20;96.40;;;;;;5073782;28;20104;-43
2020/12/22 11:02:22;;;;;;;21.95;14.68;;;19.20;96.20;;;;;;5066800;28;20048;-42
2020/12/22 11:04:53;;;;;;;23.23;14.70;;;19.30;96.00;;;;;;5084382;28;20051;-62
2020/12/22 11:07:54;;;;;;;22.30;15.30;;;19.40;96.00;;;;;;5080095;28;20062;-62
2020/12/22 11:10:15;;;;;;;17.98;11.85;;;19.40;95.80;;;;;;5076634;28;20054;-64
2020/12/22 11:12:42;;;;;;;17.10;10.85;;;19.50;95.70;;;;;;5094951;28;20043;-62
2020/12/22 11:15:10;;;;;;;21.58;13.63;;;19.50;95.60;;;;;;5072572;28;20153;-62
2020/12/22 11:17:37;;;;;;;20.33;12.98;;;19.60;95.60;;;;;;5092196;28;20131;-61
2020/12/22 11:20:05;;;;;;;22.55;14.73;;;19.60;95.50;;;;;;5089334;28;20130;-62
2020/12/22 11:22:33;;;;;;;18.55;12.85;;;19.60;95.60;;;;;;5095148;28;20043;-63
2020/12/22 11:25:12;;;;;;;16.20;12.20;;;19.50;95.50;;;;;;5097665;28;20051;-62
2020/12/22 11:27:40;;;;;;;14.82;10.50;;;19.50;95.30;;;;;;5095709;28;20059;-61
2020/12/22 11:30:09;;;;;;;14.85;10.65;;;19.30;95.20;;;;;;5072649;28;20127;-62
2020/12/22 11:32:37;;;;;;;15.63;10.40;;;19.30;95.70;;;;;;5078686;28;20052;-61
2020/12/22 11:35:08;;;;;;;15.73;9.82;;;19.20;95.70;;;;;;5078909;28;20505;-61
2020/12/22 11:37:36;;;;;;;12.57;9.68;;;19.20;96.00;;;;;;5078685;28;20052;-61
2020/12/22 11:40:06;;;;;;;12.80;7.93;;;19.00;95.40;;;;;;5095169;28;20055;-61
2020/12/22 11:42:36;;;;;;;12.02;7.38;;;18.90;95.40;;;;;;5031701;28;20065;-62
2020/12/22 11:45:06;;;;;;;14.10;8.63;;;18.90;95.30;;;;;;5068657;28;20052;-61
2020/12/22 11:47:34;;;;;;;13.40;7.90;;;19.00;95.50;;;;;;5113698;28;20071;-61
2020/12/22 11:50:04;;;;;;;12.07;8.80;;;19.10;95.50;;;;;;5065484;28;20040;-60
2020/12/22 11:52:32;;;;;;;13.45;9.05;;;19.00;95.00;;;;;;4883879;28;20044;-66
2020/12/22 11:55:00;;;;;;;14.35;8.25;;;18.90;94.90;;;;;;5094719;28;20056;-61
2020/12/22 11:57:30;;;;;;;13.43;8.70;;;19.00;95.30;;;;;;5095750;28;20564;-61
2020/12/22 11:59:57;;;;;;;14.30;8.00;;;19.00;95.80;;;;;;5095260;28;20044;-61
2020/12/22 12:02:25;;;;;;;12.27;8.35;;;19.00;95.70;;;;;;5095140;28;20047;-61
2020/12/22 12:04:53;;;;;;;13.32;9.35;;;19.00;95.60;;;;;;5078155;28;20138;-61
2020/12/22 12:07:20;;;;;;;12.70;8.80;;;19.00;95.50;;;;;;5078939;28;20051;-60
2020/12/22 12:09:48;;;;;;;12.55;7.82;;;18.90;94.90;;;;;;5095317;28;20047;-60
2020/12/22 12:12:15;;;;;;;22.73;14.80;;;18.70;94.90;;;;;;5094944;28;20043;-62
2020/12/22 12:14:43;;;;;;;26.92;17.83;;;18.50;95.10;;;;;;5094270;28;20056;-60
2020/12/22 12:17:10;;;;;;;20.08;12.93;;;18.30;95.30;;;;;;5095455;28;20062;-60
2020/12/22 12:19:38;;;;;;;14.52;10.23;;;18.30;95.80;;;;;;5095153;28;20114;-60
2020/12/22 12:22:05;;;;;;;14.68;9.90;;;18.50;96.40;;;;;;5095650;28;20550;-60
2020/12/22 12:24:32;;;;;;;13.48;8.35;;;18.40;96.20;;;;;;5094756;28;20044;-62
2020/12/22 12:27:00;;;;;;;13.38;8.10;;;18.50;96.30;;;;;;5079800;28;20039;-60
2020/12/22 12:29:30;;;;;;;18.88;9.05;;;18.50;96.40;;;;;;5094713;28;20048;-60
2020/12/22 12:32:01;;;;;;;12.55;8.80;;;18.50;96.50;;;;;;5113263;28;20052;-60
2020/12/22 12:34:28;;;;;;;16.73;9.00;;;18.50;96.70;;;;;;5094787;28;20051;-60
2020/12/22 12:36:55;;;;;;;13.35;9.02;;;18.40;96.70;;;;;;5094928;28;20114;-60
2020/12/22 12:39:23;;;;;;;13.70;8.93;;;18.20;97.00;;;;;;5070196;28;20044;-62